This is the latest recevied weather packets stored in our database for station/object KJ4EBE. If no packets are shown the sender has not sent any weather packets the latest 10 day(s).
| Time | Temp. | Humidity | Pressure | Rain* | Wind** | Luminosity | Snow |
|---|---|---|---|---|---|---|---|
| 1777751895 | 25° C | 44% | 1020.5 hPa | 0 mm | - | 783 W/m² | - |
| 1777751591 | 23.89° C | 48% | 1020.9 hPa | 0 mm | - | 789 W/m² | - |
| 1777751288 | 23.89° C | 45% | 1020.9 hPa | 0 mm | - | 790 W/m² | - |
| 1777750984 | 23.89° C | 44% | 1021 hPa | 0 mm | - | 753 W/m² | - |
| 1777750680 | 23.89° C | 48% | 1021.1 hPa | 0 mm | - | 747 W/m² | - |
| 1777750377 | 23.33° C | 46% | 1021 hPa | 0 mm | - | 766 W/m² | - |
| 1777750077 | 23.89° C | 45% | 1020.8 hPa | 0 mm | - | 791 W/m² | - |
| 1777749776 | 23.33° C | 45% | 1020.8 hPa | 0 mm | - | 772 W/m² | - |
| 1777749472 | 23.33° C | 43% | 1020.6 hPa | 0 mm | - | 757 W/m² | - |
| 1777749170 | 23.89° C | 47% | 1020.8 hPa | 0 mm | - | 758 W/m² | - |
| 1777748866 | 23.89° C | 44% | 1020.9 hPa | 0 mm | - | 288 W/m² | - |
| 1777748564 | 23.33° C | 47% | 1020.9 hPa | 0 mm | - | 771 W/m² | - |
| 1777748264 | 23.33° C | 50% | 1021.1 hPa | 0 mm | - | 780 W/m² | - |
| 1777747961 | 22.78° C | 43% | 1020.9 hPa | 0 mm | - | 784 W/m² | - |
| 1777747657 | 23.33° C | 53% | 1021.2 hPa | 0 mm | - | 776 W/m² | - |
| 1777747353 | 23.33° C | 49% | 1021 hPa | 0 mm | - | 770 W/m² | - |
| 1777747050 | 23.33° C | 53% | 1021.2 hPa | 0 mm | - | 770 W/m² | - |
| 1777746746 | 22.78° C | 47% | 1021.2 hPa | 0 mm | - | 810 W/m² | - |
| 1777746441 | 22.78° C | 49% | 1021.3 hPa | 0 mm | - | 461 W/m² | - |
| 1777746137 | 22.78° C | 47% | 1021.5 hPa | 0 mm | - | 96 W/m² | - |
| 1777745834 | 22.78° C | 50% | 1021.5 hPa | 0 mm | - | 111 W/m² | - |
| 1777745529 | 22.78° C | 49% | 1021.6 hPa | 0 mm | - | 787 W/m² | - |
| 1777745225 | 22.78° C | 53% | 1021.7 hPa | 0 mm | - | 790 W/m² | - |
| 1777744923 | 22.78° C | 54% | 1021.8 hPa | 0 mm | - | 515 W/m² | - |
| 1777744621 | 22.22° C | 48% | 1021.8 hPa | 0 mm | - | 791 W/m² | - |
* Rain latest hour (hover to see other rain measurements)
** Current wind speed in m/s (hover to see current wind gust speed)